Terminal Aerodrome Forecast
Issued by NWS Missoula, MT

Home | Current Version | Previous Version | Text Only | Print | Product List | Glossary On
Versions: 1 2 3 4 5 6 7 8 9 10 11 12 13 14 15 16
000
FTUS45 KMSO 281849 AAA
TAFGPI
TAF AMD
KGPI 281849Z 2819/2918 21012G17KT P6SM VCSH SCT030 OVC050
     FM290300 18005KT P6SM VCSH BKN050
     FM291200 17007KT 6SM -RA BR BKN030 OVC040=

USA.gov is the U.S. government's official web portal to all federal, state and local government web resources and services.